createdAt,value
2017-09-14T00:00:46.795Z,54.44
2017-09-14T00:03:14.647Z,55.01
2017-09-14T00:05:42.268Z,55.41
2017-09-14T00:08:09.912Z,55.41
2017-09-14T00:10:38.383Z,55.26
2017-09-14T00:13:05.957Z,55.82
2017-09-14T00:15:33.533Z,55.21
2017-09-14T00:18:01.135Z,54.76
2017-09-14T00:20:28.682Z,55.24
2017-09-14T00:22:56.298Z,55.52
2017-09-14T00:25:23.917Z,55.93
2017-09-14T00:27:51.524Z,55.31
2017-09-14T00:30:19.580Z,54.49
2017-09-14T00:32:47.282Z,54.49
2017-09-14T00:35:15.128Z,54.75
2017-09-14T00:37:42.736Z,55.83
2017-09-14T00:40:10.390Z,56.38
2017-09-14T00:42:38.155Z,56.43
2017-09-14T00:45:05.795Z,57.09
2017-09-14T00:47:33.341Z,57.20
2017-09-14T00:50:01.127Z,56.17
2017-09-14T00:52:28.770Z,56.52
2017-09-14T00:54:56.373Z,57.31
2017-09-14T00:57:24.215Z,57.41
2017-09-14T00:59:52.129Z,57.17
2017-09-14T01:02:19.709Z,56.72
2017-09-14T01:04:47.348Z,57.40
2017-09-14T01:07:14.927Z,57.44
2017-09-14T01:09:42.539Z,57.20
2017-09-14T01:12:10.118Z,57.40
2017-09-14T01:14:37.724Z,57.40
2017-09-14T01:17:05.514Z,57.16
2017-09-14T01:19:33.109Z,56.60
2017-09-14T01:22:00.747Z,57.17
2017-09-14T01:24:28.391Z,57.46
2017-09-14T01:26:56.008Z,57.40
2017-09-14T01:29:23.835Z,57.57
2017-09-14T01:31:51.553Z,57.63
2017-09-14T01:34:19.183Z,58.00
2017-09-14T01:36:46.834Z,58.05
2017-09-14T01:39:14.499Z,57.99
2017-09-14T01:41:42.095Z,58.10
2017-09-14T01:44:09.710Z,58.26
2017-09-14T01:46:37.317Z,57.96
2017-09-14T01:49:04.876Z,57.99
2017-09-14T01:51:32.528Z,57.37
2017-09-14T01:54:00.140Z,57.59
2017-09-14T01:56:27.793Z,58.10
2017-09-14T01:58:55.378Z,57.71
2017-09-14T02:01:23.191Z,58.06
2017-09-14T02:03:51.728Z,58.29
2017-09-14T02:06:19.596Z,58.79
2017-09-14T02:08:47.229Z,58.71
2017-09-14T02:11:14.765Z,58.90
2017-09-14T02:13:42.326Z,59.36
2017-09-14T02:16:09.915Z,59.27
2017-09-14T02:18:37.687Z,59.80
2017-09-14T02:21:05.278Z,58.91
2017-09-14T02:23:32.881Z,59.05
2017-09-14T02:26:00.462Z,59.11
2017-09-14T02:28:28.058Z,58.71
2017-09-14T02:30:55.706Z,58.39
2017-09-14T02:33:23.299Z,58.93
2017-09-14T02:35:51.069Z,59.31
2017-09-14T02:38:18.785Z,59.13
2017-09-14T02:40:46.324Z,58.64
2017-09-14T02:43:13.864Z,59.15
2017-09-14T02:45:41.435Z,58.68
2017-09-14T02:48:09.100Z,58.33
2017-09-14T02:50:36.870Z,58.72
2017-09-14T02:53:04.463Z,58.80
2017-09-14T02:55:32.006Z,58.33
2017-09-14T02:57:59.541Z,58.76
2017-09-14T03:00:27.426Z,58.50
2017-09-14T03:02:55.032Z,59.38
2017-09-14T03:05:22.625Z,59.97
2017-09-14T03:07:50.234Z,59.24
2017-09-14T03:10:17.814Z,60.40
2017-09-14T03:12:45.355Z,60.24
2017-09-14T03:15:12.906Z,60.01
2017-09-14T03:17:40.514Z,59.19
2017-09-14T03:20:08.045Z,59.34
2017-09-14T03:22:35.652Z,59.53
2017-09-14T03:25:03.183Z,59.98
2017-09-14T03:27:30.755Z,59.66
2017-09-14T03:29:58.344Z,59.57
2017-09-14T03:32:25.986Z,59.48
2017-09-14T03:34:53.554Z,60.01
2017-09-14T03:37:21.117Z,59.73
2017-09-14T03:39:48.677Z,59.29
2017-09-14T03:42:16.241Z,60.03
2017-09-14T03:44:43.764Z,60.42
2017-09-14T03:47:11.434Z,60.32
2017-09-14T03:49:39.086Z,60.17
2017-09-14T03:52:07.228Z,59.98
2017-09-14T03:54:34.793Z,60.43
2017-09-14T03:57:11.721Z,60.64
2017-09-14T03:59:39.394Z,60.07
2017-09-14T04:02:07.054Z,60.54
2017-09-14T04:04:36.073Z,60.80
2017-09-14T04:07:03.646Z,60.69
2017-09-14T04:09:32.450Z,60.79
2017-09-14T04:12:00.127Z,60.81
2017-09-14T04:14:27.893Z,60.65
2017-09-14T04:16:57.611Z,60.52
2017-09-14T04:19:25.267Z,59.98
2017-09-14T04:21:52.916Z,59.59
2017-09-14T04:28:14.287Z,57.59
2017-09-14T04:30:42.513Z,64.08
2017-09-14T04:33:10.135Z,55.07
2017-09-14T04:35:38.035Z,49.45
2017-09-14T04:38:05.724Z,48.58
2017-09-14T04:40:34.125Z,47.14
2017-09-14T04:43:01.782Z,45.97
2017-09-14T04:45:29.432Z,44.55
2017-09-14T04:47:57.063Z,44.76
2017-09-14T04:50:24.777Z,46.90
2017-09-14T04:53:31.421Z,43.40
2017-09-14T04:55:59.235Z,42.74
2017-09-14T04:58:26.790Z,41.50
2017-09-14T05:00:54.371Z,43.02
2017-09-14T05:03:22.001Z,42.79
2017-09-14T05:05:49.561Z,42.99
2017-09-14T05:08:17.160Z,43.41
2017-09-14T05:10:44.776Z,43.30
2017-09-14T05:13:12.391Z,41.51
2017-09-14T05:15:40.017Z,41.33
2017-09-14T05:18:07.662Z,41.33
2017-09-14T05:20:35.225Z,41.13
2017-09-14T05:23:02.834Z,41.09
2017-09-14T05:25:30.590Z,40.97
2017-09-14T05:27:58.406Z,41.44
2017-09-14T05:30:26.152Z,41.16
2017-09-14T05:32:53.994Z,39.89
2017-09-14T05:35:21.767Z,39.85
2017-09-14T05:37:49.327Z,39.48
2017-09-14T05:40:16.854Z,38.91
2017-09-14T05:42:44.442Z,38.89
2017-09-14T05:45:12.029Z,38.34
2017-09-14T05:47:39.719Z,38.31
2017-09-14T05:50:07.383Z,37.61
2017-09-14T05:52:34.977Z,37.33
2017-09-14T05:55:02.614Z,37.32
2017-09-14T05:57:30.140Z,36.92
2017-09-14T05:59:57.830Z,34.88
2017-09-14T06:02:25.991Z,35.70
2017-09-14T06:04:53.773Z,34.68
2017-09-14T06:07:21.326Z,34.70
2017-09-14T06:09:48.970Z,34.40
2017-09-14T06:12:16.550Z,34.83
2017-09-14T06:14:44.075Z,34.28
2017-09-14T06:17:11.767Z,34.29
2017-09-14T06:19:39.377Z,34.15
2017-09-14T06:22:07.075Z,33.58
2017-09-14T06:24:34.662Z,32.84
2017-09-14T06:27:02.271Z,32.69
2017-09-14T06:29:29.791Z,32.62
2017-09-14T06:31:57.374Z,33.65
2017-09-14T06:34:24.889Z,33.29
2017-09-14T06:36:52.466Z,32.57
2017-09-14T06:39:23.539Z,32.73
2017-09-14T06:41:51.319Z,32.21
2017-09-14T06:44:26.044Z,31.71
2017-09-14T06:46:53.558Z,31.19
2017-09-14T06:49:21.311Z,30.10
2017-09-14T06:52:04.501Z,30.37
2017-09-14T06:54:38.833Z,31.21
2017-09-14T06:57:07.706Z,31.33
2017-09-14T06:59:35.307Z,31.05
2017-09-14T07:02:40.439Z,30.57
2017-09-14T07:05:08.229Z,31.39
2017-09-14T07:07:43.827Z,31.81
2017-09-14T07:10:21.407Z,31.01
2017-09-14T07:12:48.993Z,29.68
2017-09-14T07:21:02.160Z,30.96
2017-09-14T07:23:30.618Z,30.62
2017-09-14T07:26:00.650Z,30.32
2017-09-14T07:28:35.948Z,29.94
2017-09-14T07:31:03.799Z,29.75
2017-09-14T07:33:31.589Z,29.01
2017-09-14T07:35:59.121Z,28.22
2017-09-14T07:38:26.702Z,27.67
2017-09-14T07:40:54.236Z,27.76
2017-09-14T07:43:22.044Z,27.41
2017-09-14T07:45:49.586Z,27.45
2017-09-14T07:48:17.137Z,28.09
2017-09-14T07:50:44.972Z,28.00
2017-09-14T07:53:12.557Z,27.74
2017-09-14T07:55:40.099Z,28.37
2017-09-14T07:58:07.632Z,29.33
2017-09-14T08:00:35.194Z,27.86
2017-09-14T08:03:02.713Z,28.91
2017-09-14T08:05:30.238Z,28.50
2017-09-14T08:07:57.827Z,28.68
2017-09-14T08:10:25.353Z,29.37
2017-09-14T08:12:52.953Z,28.15
2017-09-14T08:15:20.542Z,29.68
2017-09-14T08:17:48.327Z,29.92
2017-09-14T08:20:15.945Z,28.39
2017-09-14T08:22:44.436Z,28.20
2017-09-14T08:25:12.086Z,28.65
2017-09-14T08:27:39.910Z,27.52
2017-09-14T08:30:07.607Z,28.76
2017-09-14T08:32:35.146Z,29.35
2017-09-14T08:35:02.729Z,27.93
2017-09-14T08:37:30.321Z,27.81
2017-09-14T08:39:57.873Z,28.60
2017-09-14T08:42:25.498Z,27.54
2017-09-14T08:44:53.174Z,27.68
2017-09-14T08:47:20.869Z,27.95
2017-09-14T08:49:48.507Z,27.52
2017-09-14T08:52:16.114Z,27.01
2017-09-14T08:54:43.718Z,27.07
2017-09-14T08:57:11.283Z,26.94
2017-09-14T08:59:38.858Z,26.12
2017-09-14T09:02:06.446Z,26.67
2017-09-14T09:04:34.167Z,27.07
2017-09-14T09:07:01.974Z,26.51
2017-09-14T09:09:29.647Z,26.00
2017-09-14T09:11:58.180Z,26.20
2017-09-14T09:14:25.892Z,26.91
2017-09-14T09:16:53.481Z,26.10
2017-09-14T09:19:21.864Z,28.07
2017-09-14T09:21:49.724Z,28.76
2017-09-14T09:24:17.347Z,29.57
2017-09-14T09:26:45.517Z,28.30
2017-09-14T09:29:13.268Z,26.27
2017-09-14T09:31:40.867Z,25.26
2017-09-14T09:34:08.682Z,25.67
2017-09-14T09:36:36.200Z,24.96
2017-09-14T09:39:03.850Z,25.99
2017-09-14T09:41:31.474Z,27.29
2017-09-14T09:43:59.021Z,27.01
2017-09-14T09:46:26.635Z,26.78
2017-09-14T09:48:54.202Z,28.02
2017-09-14T09:51:21.739Z,28.21
2017-09-14T09:53:49.335Z,29.13
2017-09-14T09:56:17.106Z,28.54
2017-09-14T09:58:44.680Z,27.20
2017-09-14T10:01:12.294Z,27.57
2017-09-14T10:03:39.844Z,26.78
2017-09-14T10:06:07.382Z,27.36
2017-09-14T10:08:35.153Z,27.38
2017-09-14T10:11:02.718Z,26.85
2017-09-14T10:13:30.382Z,28.04
2017-09-14T10:15:58.007Z,28.22
2017-09-14T10:18:25.553Z,28.65
2017-09-14T10:20:53.099Z,27.71
2017-09-14T10:23:20.769Z,26.78
2017-09-14T10:25:48.574Z,26.53
2017-09-14T10:28:16.146Z,28.35
2017-09-14T10:30:43.746Z,29.10
2017-09-14T10:33:12.141Z,28.33
2017-09-14T10:35:39.697Z,27.14
2017-09-14T10:38:07.702Z,26.69
2017-09-14T10:40:35.487Z,26.49
2017-09-14T10:43:03.047Z,26.50
2017-09-14T10:45:31.518Z,26.04
2017-09-14T10:47:59.287Z,26.44
2017-09-14T10:50:27.036Z,25.70
2017-09-14T10:52:54.674Z,25.95
2017-09-14T10:55:22.234Z,26.78
2017-09-14T10:57:49.798Z,27.37
2017-09-14T11:00:19.282Z,27.17
2017-09-14T11:02:46.879Z,27.31
2017-09-14T11:05:14.897Z,27.93
2017-09-14T11:07:42.470Z,27.99
2017-09-14T11:10:19.080Z,26.80
2017-09-14T11:12:46.722Z,27.09
2017-09-14T11:15:14.321Z,26.66
2017-09-14T11:17:41.948Z,27.62
2017-09-14T11:20:09.586Z,27.36
2017-09-14T11:22:37.143Z,26.98
2017-09-14T11:25:04.712Z,27.12
2017-09-14T11:27:32.282Z,27.12
2017-09-14T11:30:05.637Z,26.54
2017-09-14T11:32:33.392Z,26.36
2017-09-14T11:35:01.143Z,25.94
2017-09-14T11:37:32.655Z,25.88
2017-09-14T11:40:00.205Z,25.14
2017-09-14T11:42:27.767Z,25.10
2017-09-14T11:44:55.334Z,25.30
2017-09-14T11:47:25.748Z,24.71
2017-09-14T11:49:53.590Z,25.69
2017-09-14T11:52:21.208Z,25.67
2017-09-14T11:54:49.011Z,25.19
2017-09-14T11:57:19.391Z,25.26
2017-09-14T11:59:47.043Z,24.84
2017-09-14T12:02:14.654Z,25.46
2017-09-14T12:04:43.214Z,25.25
2017-09-14T12:07:10.973Z,25.37
2017-09-14T12:09:41.739Z,25.65
2017-09-14T12:12:14.443Z,25.48
2017-09-14T12:14:42.892Z,25.46
2017-09-14T12:17:14.706Z,25.64
2017-09-14T12:19:42.285Z,25.25
2017-09-14T12:22:12.858Z,25.03
2017-09-14T12:24:41.181Z,25.11
2017-09-14T12:27:09.827Z,25.41
2017-09-14T12:29:39.093Z,24.94
2017-09-14T12:32:06.708Z,25.35
2017-09-14T12:34:34.261Z,25.41
2017-09-14T12:37:04.731Z,25.00
2017-09-14T12:39:32.387Z,25.01
2017-09-14T12:41:59.983Z,24.55
2017-09-14T12:44:27.614Z,24.71
2017-09-14T12:46:59.150Z,24.64
2017-09-14T12:49:27.508Z,23.86
2017-09-14T12:51:55.148Z,23.57
2017-09-14T12:54:22.739Z,24.05
2017-09-14T12:56:51.021Z,23.80
2017-09-14T12:59:18.631Z,23.24
2017-09-14T13:01:46.305Z,23.68
2017-09-14T13:04:13.842Z,23.76
2017-09-14T13:06:41.516Z,23.84
2017-09-14T13:09:09.217Z,23.82
2017-09-14T13:11:37.056Z,23.90
2017-09-14T13:14:04.770Z,24.15
2017-09-14T13:16:32.475Z,24.34
2017-09-14T13:19:00.118Z,24.70
2017-09-14T13:21:27.884Z,25.06
2017-09-14T13:23:55.608Z,24.81
2017-09-14T13:26:23.155Z,24.96
2017-09-14T13:28:50.830Z,24.19
2017-09-14T13:31:18.468Z,24.43
2017-09-14T13:33:46.371Z,24.22
2017-09-14T13:36:13.891Z,24.22
2017-09-14T13:38:41.521Z,24.51
2017-09-14T13:41:09.424Z,24.54
2017-09-14T13:43:37.167Z,24.33
2017-09-14T13:46:04.786Z,24.79
2017-09-14T13:48:32.361Z,24.67
2017-09-14T13:51:00.126Z,23.98
2017-09-14T13:53:27.738Z,24.72
2017-09-14T13:55:55.261Z,24.83
2017-09-14T13:58:22.910Z,24.83
2017-09-14T14:00:50.547Z,24.29
2017-09-14T14:03:18.134Z,24.44
2017-09-14T14:05:45.708Z,24.79
2017-09-14T14:08:13.396Z,24.70
2017-09-14T14:10:40.988Z,25.22
2017-09-14T14:13:08.932Z,24.95
2017-09-14T14:15:36.572Z,25.10
2017-09-14T14:18:04.376Z,25.34
2017-09-14T14:20:32.115Z,25.14
2017-09-14T14:23:00.704Z,24.92
2017-09-14T14:25:28.237Z,24.77
2017-09-14T14:27:56.430Z,24.85
2017-09-14T14:30:24.173Z,25.36
2017-09-14T14:32:51.763Z,25.39
2017-09-14T14:35:19.541Z,25.34
2017-09-14T14:37:47.153Z,25.32
2017-09-14T14:40:14.864Z,25.68
2017-09-14T14:42:42.622Z,25.54
2017-09-14T14:45:10.255Z,25.69
2017-09-14T14:47:38.121Z,25.87
2017-09-14T14:50:05.655Z,25.70
2017-09-14T14:52:33.366Z,25.85
2017-09-14T14:55:00.923Z,26.09
2017-09-14T14:57:28.505Z,25.76
2017-09-14T14:59:56.180Z,26.04
2017-09-14T15:02:23.772Z,26.21
2017-09-14T15:04:51.432Z,26.22
2017-09-14T15:07:19.245Z,26.54
2017-09-14T15:09:46.876Z,26.47
2017-09-14T15:12:14.474Z,25.64
2017-09-14T15:14:42.095Z,26.05
2017-09-14T15:17:09.707Z,26.02
2017-09-14T15:19:37.903Z,26.08
2017-09-14T15:22:05.506Z,25.76
2017-09-14T15:24:33.075Z,26.06
2017-09-14T15:27:00.676Z,26.97
2017-09-14T15:29:28.256Z,27.57
2017-09-14T15:31:56.067Z,26.49
2017-09-14T15:34:23.654Z,26.54
2017-09-14T15:36:51.233Z,27.29
2017-09-14T15:39:24.364Z,26.84
2017-09-14T15:41:51.916Z,26.57
2017-09-14T15:44:25.090Z,27.93
2017-09-14T15:46:52.643Z,27.22
2017-09-14T15:49:25.853Z,27.60
2017-09-14T15:51:53.478Z,27.00
2017-09-14T15:54:20.996Z,28.50
2017-09-14T15:56:51.019Z,27.83
2017-09-14T15:59:18.714Z,27.40
2017-09-14T16:01:46.384Z,29.05
2017-09-14T16:04:14.014Z,28.26
2017-09-14T16:06:41.611Z,28.45
2017-09-14T16:09:09.912Z,29.13
2017-09-14T16:11:37.543Z,28.01
2017-09-14T16:14:05.588Z,29.64
2017-09-14T16:16:33.257Z,29.37
2017-09-14T16:19:00.953Z,29.83
2017-09-14T16:21:28.606Z,29.80
2017-09-14T16:23:56.718Z,29.21
2017-09-14T16:26:24.359Z,29.73
2017-09-14T16:28:52.002Z,28.91
2017-09-14T16:31:20.472Z,30.33
2017-09-14T16:33:48.150Z,29.55
2017-09-14T16:36:16.217Z,28.73
2017-09-14T16:38:43.873Z,30.14
2017-09-14T16:41:13.319Z,29.89
2017-09-14T16:43:40.936Z,30.09
2017-09-14T16:46:12.168Z,28.89
2017-09-14T16:48:40.020Z,30.12
2017-09-14T16:51:07.709Z,29.90
2017-09-14T16:53:35.365Z,28.87
2017-09-14T16:56:03.127Z,29.34
2017-09-14T16:58:30.762Z,29.90
2017-09-14T17:00:58.394Z,30.40
2017-09-14T17:03:29.678Z,31.71
2017-09-14T17:05:57.339Z,30.07
2017-09-14T17:08:25.678Z,31.21
2017-09-14T17:10:54.309Z,30.59
2017-09-14T17:13:24.671Z,31.35
2017-09-14T17:15:56.918Z,31.63
2017-09-14T17:18:26.108Z,32.01
2017-09-14T17:20:57.067Z,33.36
2017-09-14T17:23:25.714Z,32.61
2017-09-14T17:25:53.288Z,33.25
2017-09-14T17:28:20.897Z,32.78
2017-09-14T17:30:50.391Z,33.06
2017-09-14T17:33:17.952Z,32.53
2017-09-14T17:35:47.299Z,32.84
2017-09-14T17:38:14.983Z,33.10
2017-09-14T17:40:42.550Z,33.49
2017-09-14T17:43:11.499Z,34.54
2017-09-14T17:45:39.062Z,34.76
2017-09-14T17:48:06.846Z,34.96
2017-09-14T17:50:35.698Z,33.93
2017-09-14T17:53:03.319Z,34.55
2017-09-14T17:55:31.095Z,34.21
2017-09-14T17:57:58.903Z,34.25
2017-09-14T18:00:29.132Z,34.36
2017-09-14T18:02:57.257Z,33.71
2017-09-14T18:05:24.898Z,35.04
2017-09-14T18:07:52.474Z,33.73
2017-09-14T18:10:20.182Z,34.31
2017-09-14T18:12:48.453Z,33.94
2017-09-14T18:15:16.140Z,33.85
2017-09-14T18:17:44.064Z,34.24
2017-09-14T18:20:12.346Z,34.68
2017-09-14T18:22:43.363Z,35.55
2017-09-14T18:25:10.956Z,35.86
2017-09-14T18:27:39.147Z,36.13
2017-09-14T18:30:07.745Z,36.21
2017-09-14T18:32:37.159Z,36.65
2017-09-14T18:35:04.724Z,36.71
2017-09-14T18:37:34.638Z,36.86
2017-09-14T18:40:02.352Z,37.34
2017-09-14T18:42:29.942Z,37.34
2017-09-14T18:44:57.490Z,37.31
2017-09-14T18:47:25.068Z,37.58
2017-09-14T18:49:52.810Z,38.64
2017-09-14T18:52:20.431Z,38.82
2017-09-14T18:54:48.006Z,39.24
2017-09-14T18:57:15.609Z,39.59
2017-09-14T18:59:43.198Z,39.60
2017-09-14T19:02:10.779Z,39.58
2017-09-14T19:04:38.336Z,39.80
2017-09-14T19:07:06.901Z,39.78
2017-09-14T19:09:34.493Z,40.68
2017-09-14T19:12:02.089Z,40.53
2017-09-14T19:14:29.712Z,40.29
2017-09-14T19:16:57.286Z,40.58
2017-09-14T19:19:24.893Z,40.57
2017-09-14T19:21:52.570Z,40.96
2017-09-14T19:24:20.272Z,40.45
2017-09-14T19:26:47.936Z,40.55
2017-09-14T19:29:15.525Z,40.83
2017-09-14T19:31:43.929Z,40.77
2017-09-14T19:34:14.292Z,40.59
2017-09-14T19:36:41.844Z,40.80
2017-09-14T19:39:09.447Z,40.77
2017-09-14T19:41:37.200Z,40.99
2017-09-14T19:44:04.767Z,40.89
2017-09-14T19:46:33.218Z,41.65
2017-09-14T19:49:00.839Z,42.04
2017-09-14T19:51:28.380Z,41.92
2017-09-14T19:53:55.971Z,42.14
2017-09-14T19:56:23.505Z,41.87
2017-09-14T19:58:51.056Z,42.01
2017-09-14T20:01:19.471Z,40.90
2017-09-14T20:03:46.986Z,41.21
2017-09-14T20:06:14.522Z,40.77
2017-09-14T20:08:42.104Z,41.07
2017-09-14T20:11:09.643Z,41.94
2017-09-14T20:13:38.019Z,42.53
2017-09-14T20:16:05.699Z,42.48
2017-09-14T20:18:33.273Z,43.16
2017-09-14T20:21:00.829Z,43.43
2017-09-14T20:23:28.431Z,43.61
2017-09-14T20:25:57.281Z,44.00
2017-09-14T20:28:24.843Z,43.07
2017-09-14T20:30:53.371Z,42.92
2017-09-14T20:33:20.977Z,43.39
2017-09-14T20:35:48.563Z,43.45
2017-09-14T20:38:16.155Z,44.00
2017-09-14T20:40:44.055Z,44.24
2017-09-14T20:43:11.639Z,44.61
2017-09-14T20:45:39.258Z,44.38
2017-09-14T20:48:06.931Z,44.17
2017-09-14T20:50:34.512Z,44.79
2017-09-14T20:53:02.070Z,44.99
2017-09-14T20:55:29.605Z,45.09
2017-09-14T20:57:57.190Z,44.43
2017-09-14T21:00:24.866Z,44.40
2017-09-14T21:02:52.486Z,45.71
2017-09-14T21:05:20.061Z,43.81
2017-09-14T21:07:47.734Z,44.06
2017-09-14T21:10:15.293Z,45.20
2017-09-14T21:12:42.874Z,44.47
2017-09-14T21:15:10.498Z,45.64
2017-09-14T21:17:38.021Z,46.07
2017-09-14T21:20:05.784Z,45.80
2017-09-14T21:22:33.378Z,45.97
2017-09-14T21:25:00.924Z,46.14
2017-09-14T21:27:28.509Z,45.67
2017-09-14T21:29:56.129Z,45.65
2017-09-14T21:32:23.741Z,46.93
2017-09-14T21:34:51.291Z,47.03
2017-09-14T21:37:18.919Z,45.36
2017-09-14T21:39:46.500Z,45.90
2017-09-14T21:42:14.092Z,45.66
2017-09-14T21:44:41.688Z,47.42
2017-09-14T21:47:09.280Z,47.60
2017-09-14T21:49:36.846Z,47.22
2017-09-14T21:52:04.417Z,47.62
2017-09-14T21:54:32.025Z,47.66
2017-09-14T21:56:59.568Z,47.95
2017-09-14T21:59:27.105Z,47.48
2017-09-14T22:01:54.720Z,47.26
2017-09-14T22:04:22.411Z,47.93
2017-09-14T22:06:49.981Z,47.91
2017-09-14T22:09:17.535Z,47.54
2017-09-14T22:11:45.064Z,48.28
2017-09-14T22:14:12.618Z,48.58
2017-09-14T22:16:40.232Z,48.50
2017-09-14T22:19:07.977Z,48.88
2017-09-14T22:21:35.529Z,48.76
2017-09-14T22:24:03.111Z,48.73
2017-09-14T22:26:30.690Z,48.80
2017-09-14T22:28:59.023Z,49.18
2017-09-14T22:31:26.618Z,49.06
2017-09-14T22:33:54.227Z,49.11
2017-09-14T22:36:21.801Z,49.07
2017-09-14T22:38:49.391Z,48.85
2017-09-14T22:41:16.918Z,48.98
2017-09-14T22:43:44.515Z,49.37
2017-09-14T22:46:12.085Z,50.27
2017-09-14T22:48:39.617Z,50.46
2017-09-14T22:51:07.222Z,50.53
2017-09-14T22:53:34.844Z,50.77
2017-09-14T22:56:02.446Z,50.88
2017-09-14T22:58:30.213Z,51.11
2017-09-14T23:00:57.795Z,50.92
2017-09-14T23:03:25.333Z,50.90
2017-09-14T23:05:52.874Z,50.18
2017-09-14T23:08:21.310Z,50.37
2017-09-14T23:10:48.844Z,50.17
2017-09-14T23:13:16.360Z,50.39
2017-09-14T23:15:43.975Z,50.68
2017-09-14T23:18:11.529Z,50.71
2017-09-14T23:20:39.061Z,50.70
2017-09-14T23:23:06.675Z,51.49
2017-09-14T23:25:34.217Z,51.53
2017-09-14T23:28:01.741Z,51.26
2017-09-14T23:30:29.336Z,51.28
2017-09-14T23:32:56.863Z,50.85
2017-09-14T23:35:24.381Z,50.75
2017-09-14T23:37:51.987Z,51.67
2017-09-14T23:40:19.569Z,52.02
2017-09-14T23:42:47.098Z,51.55
2017-09-14T23:45:14.668Z,51.11
2017-09-14T23:47:42.252Z,51.05
2017-09-14T23:50:09.789Z,51.39
2017-09-14T23:52:37.395Z,52.19
2017-09-14T23:55:04.930Z,52.17
2017-09-14T23:57:32.550Z,51.61
